EWG42M EDLP-LEPA
Flight info
| Callsign | EWG42M |
|---|---|
| Flight time | N/A |
| Altitude | 37000 |
| Route | GISDI1X GISDI Y13 ALEXU N850 GISEM DCT BOMBI DCT GIGET DCT ABUKA DCT KRH DCT NATOR DCT LUTIX DCT BENOT DCT NEMOS DCT GEVEA DCT INCUS DCT BALSI DCT RETNO DCT TUPOX DCT MTG DCT DIVKO DCT VATIR N852 VERSO L129 LUNIK |
| Aircraft | A320/M-SDE3FGHIRWY/LB1 |
Departure
| Time | 2026-04-29 09:06 |
|---|---|
| Airport | Paderborn Lippstadt Airport (EDLP) |
Arrival
| Time | N/A |
|---|---|
| Airport | Palma de Mallorca Airport (LEPA) |
| Time | Latitude | Longitude | Altitude | Speed | Heading |
|---|---|---|---|---|---|
| 2026-04-29 08:32 | 51.61146 | 8.62005 | 731 ft | 0 kts | 147° |
| 2026-04-29 08:58 | 51.61151 | 8.61999 | 731 ft | 2 kts | 148° |
| 2026-04-29 08:58 | 51.61166 | 8.61986 | 731 ft | 2 kts | 155° |
| 2026-04-29 08:58 | 51.61181 | 8.61976 | 729 ft | 2 kts | 172° |
| 2026-04-29 08:59 | 51.61198 | 8.61976 | 728 ft | 2 kts | 211° |
| 2026-04-29 08:59 | 51.61210 | 8.61993 | 730 ft | 2 kts | 236° |
| 2026-04-29 08:59 | 51.61212 | 8.61998 | 730 ft | 0 kts | 237° |
| 2026-04-29 09:01 | 51.61208 | 8.61987 | 730 ft | 3 kts | 237° |
| 2026-04-29 09:01 | 51.61196 | 8.61958 | 730 ft | 5 kts | 237° |
| 2026-04-29 09:01 | 51.61167 | 8.61884 | 731 ft | 9 kts | 237° |
| 2026-04-29 09:02 | 51.61136 | 8.61808 | 731 ft | 8 kts | 237° |
| 2026-04-29 09:02 | 51.61095 | 8.61710 | 731 ft | 14 kts | 236° |
| 2026-04-29 09:02 | 51.61046 | 8.61589 | 730 ft | 12 kts | 237° |
| 2026-04-29 09:02 | 51.61000 | 8.61476 | 731 ft | 13 kts | 237° |
| 2026-04-29 09:03 | 51.60960 | 8.61347 | 731 ft | 13 kts | 263° |
| 2026-04-29 09:03 | 51.60977 | 8.61184 | 723 ft | 18 kts | 282° |
| 2026-04-29 09:03 | 51.60950 | 8.60995 | 721 ft | 17 kts | 237° |
| 2026-04-29 09:03 | 51.60885 | 8.60833 | 718 ft | 17 kts | 237° |
| 2026-04-29 09:04 | 51.60820 | 8.60674 | 714 ft | 17 kts | 237° |
| 2026-04-29 09:04 | 51.60760 | 8.60518 | 717 ft | 16 kts | 249° |
| 2026-04-29 09:04 | 51.60783 | 8.60373 | 714 ft | 12 kts | 321° |
| 2026-04-29 09:04 | 51.60843 | 8.60323 | 718 ft | 9 kts | 332° |
| 2026-04-29 09:05 | 51.60910 | 8.60410 | 718 ft | 24 kts | 57° |
| 2026-04-29 09:05 | 51.61127 | 8.60951 | 720 ft | 92 kts | 57° |
| 2026-04-29 09:05 | 51.61583 | 8.62072 | 760 ft | 141 kts | 60° |
| 2026-04-29 09:05 | 51.62154 | 8.63425 | 1242 ft | 154 kts | 58° |
| 2026-04-29 09:06 | 51.62800 | 8.64904 | 1824 ft | 162 kts | 58° |
| 2026-04-29 09:06 | 51.63341 | 8.66468 | 2218 ft | 159 kts | 75° |
| 2026-04-29 09:06 | 51.63457 | 8.68191 | 2558 ft | 156 kts | 97° |
| 2026-04-29 09:06 | 51.63111 | 8.69875 | 2916 ft | 164 kts | 120° |
| 2026-04-29 09:07 | 51.62269 | 8.71222 | 3343 ft | 181 kts | 145° |
| 2026-04-29 09:07 | 51.61023 | 8.71794 | 3852 ft | 196 kts | 173° |
| 2026-04-29 09:07 | 51.59650 | 8.71856 | 4387 ft | 200 kts | 172° |
| 2026-04-29 09:07 | 51.58222 | 8.71881 | 4877 ft | 210 kts | 175° |
| 2026-04-29 09:08 | 51.56694 | 8.71832 | 5274 ft | 230 kts | 176° |
| 2026-04-29 09:08 | 51.55033 | 8.71764 | 5738 ft | 247 kts | 176° |
| 2026-04-29 09:08 | 51.53269 | 8.71827 | 6283 ft | 260 kts | 171° |
| 2026-04-29 09:08 | 51.51431 | 8.72174 | 6856 ft | 272 kts | 165° |
| 2026-04-29 09:09 | 51.49546 | 8.72725 | 7548 ft | 280 kts | 169° |
| 2026-04-29 09:09 | 51.47584 | 8.73042 | 8331 ft | 286 kts | 172° |
| 2026-04-29 09:09 | 51.45580 | 8.73258 | 9146 ft | 290 kts | 173° |
| 2026-04-29 09:09 | 51.43577 | 8.73431 | 9933 ft | 294 kts | 174° |
| 2026-04-29 09:10 | 51.41486 | 8.73608 | 10647 ft | 301 kts | 174° |
| 2026-04-29 09:10 | 51.39341 | 8.73801 | 10892 ft | 324 kts | 174° |
| 2026-04-29 09:10 | 51.37010 | 8.74030 | 11172 ft | 343 kts | 174° |
| 2026-04-29 09:10 | 51.34603 | 8.74276 | 11783 ft | 350 kts | 174° |
| 2026-04-29 09:11 | 51.32146 | 8.74526 | 12467 ft | 355 kts | 174° |
| 2026-04-29 09:11 | 51.29661 | 8.74779 | 13146 ft | 360 kts | 174° |
| 2026-04-29 09:11 | 51.27151 | 8.75039 | 13808 ft | 364 kts | 174° |
| 2026-04-29 09:11 | 51.24608 | 8.75309 | 14440 ft | 368 kts | 174° |
| 2026-04-29 09:12 | 51.22035 | 8.75602 | 15040 ft | 372 kts | 173° |
| 2026-04-29 09:12 | 51.19445 | 8.75899 | 15643 ft | 375 kts | 173° |
| 2026-04-29 09:12 | 51.16828 | 8.76204 | 16243 ft | 379 kts | 173° |
| 2026-04-29 09:12 | 51.14187 | 8.76502 | 16840 ft | 383 kts | 173° |
| 2026-04-29 09:13 | 51.11518 | 8.76796 | 17418 ft | 386 kts | 173° |
| 2026-04-29 09:13 | 51.08826 | 8.77094 | 18005 ft | 390 kts | 173° |
| 2026-04-29 09:13 | 51.06108 | 8.77398 | 18586 ft | 393 kts | 173° |
| 2026-04-29 09:13 | 51.03366 | 8.77699 | 19090 ft | 396 kts | 173° |
| 2026-04-29 09:14 | 51.00601 | 8.77996 | 19600 ft | 399 kts | 173° |
| 2026-04-29 09:14 | 50.97944 | 8.78277 | 20081 ft | 402 kts | 173° |
| 2026-04-29 09:14 | 50.95218 | 8.78570 | 20569 ft | 404 kts | 173° |
| 2026-04-29 09:14 | 50.92397 | 8.78883 | 21054 ft | 407 kts | 173° |
| 2026-04-29 09:15 | 50.89567 | 8.79203 | 21526 ft | 410 kts | 173° |
| 2026-04-29 09:15 | 50.86711 | 8.79526 | 22001 ft | 412 kts | 173° |
| 2026-04-29 09:15 | 50.83844 | 8.79853 | 22470 ft | 415 kts | 173° |
| 2026-04-29 09:15 | 50.80948 | 8.80176 | 22928 ft | 418 kts | 174° |
| 2026-04-29 09:16 | 50.78040 | 8.80486 | 23379 ft | 421 kts | 174° |
| 2026-04-29 09:16 | 50.75070 | 8.80796 | 23828 ft | 424 kts | 174° |
| 2026-04-29 09:16 | 50.72122 | 8.81096 | 24207 ft | 426 kts | 174° |
| 2026-04-29 09:16 | 50.69153 | 8.81385 | 24567 ft | 429 kts | 174° |
| 2026-04-29 09:17 | 50.67656 | 8.81530 | 24743 ft | 430 kts | 174° |
| 2026-04-29 09:17 | 50.66558 | 8.81550 | 24827 ft | 432 kts | 186° |
| 2026-04-29 09:17 | 50.63675 | 8.80036 | 24809 ft | 447 kts | 211° |
| 2026-04-29 09:17 | 50.61369 | 8.76740 | 24824 ft | 454 kts | 236° |
| 2026-04-29 09:18 | 50.60041 | 8.72243 | 24981 ft | 455 kts | 256° |
| 2026-04-29 09:18 | 50.59089 | 8.67557 | 25743 ft | 446 kts | 248° |
| 2026-04-29 09:18 | 50.57494 | 8.63381 | 26250 ft | 447 kts | 231° |
| 2026-04-29 09:18 | 50.55225 | 8.60044 | 26615 ft | 449 kts | 214° |
| 2026-04-29 09:19 | 50.52473 | 8.57752 | 26958 ft | 449 kts | 198° |
| 2026-04-29 09:19 | 50.49435 | 8.56651 | 27291 ft | 448 kts | 182° |
| 2026-04-29 09:19 | 50.46341 | 8.56838 | 27618 ft | 445 kts | 167° |
| 2026-04-29 09:19 | 50.43388 | 8.58232 | 27948 ft | 443 kts | 157° |
| 2026-04-29 09:20 | 50.40492 | 8.59931 | 28267 ft | 446 kts | 157° |
| 2026-04-29 09:20 | 50.37583 | 8.61634 | 28583 ft | 448 kts | 157° |
| 2026-04-29 09:20 | 50.35638 | 8.62768 | 28801 ft | 450 kts | 158° |
| 2026-04-29 09:20 | 50.34210 | 8.63592 | 28959 ft | 451 kts | 158° |
| 2026-04-29 09:21 | 50.31256 | 8.65284 | 29263 ft | 453 kts | 158° |
| 2026-04-29 09:21 | 50.28287 | 8.66989 | 29546 ft | 456 kts | 158° |
| 2026-04-29 09:21 | 50.25300 | 8.68710 | 29806 ft | 459 kts | 159° |
| 2026-04-29 09:21 | 50.22299 | 8.70446 | 30076 ft | 461 kts | 159° |
| 2026-04-29 09:22 | 50.19282 | 8.72198 | 30322 ft | 463 kts | 159° |
| 2026-04-29 09:22 | 50.16256 | 8.73956 | 30555 ft | 466 kts | 159° |
| 2026-04-29 09:22 | 50.13211 | 8.75714 | 30787 ft | 468 kts | 159° |
| 2026-04-29 09:22 | 50.10141 | 8.77459 | 30989 ft | 470 kts | 162° |
| 2026-04-29 09:23 | 50.06970 | 8.78705 | 31213 ft | 471 kts | 171° |
| 2026-04-29 09:23 | 50.03713 | 8.79196 | 31530 ft | 469 kts | 180° |
| 2026-04-29 09:23 | 50.00477 | 8.78940 | 31865 ft | 466 kts | 189° |
| 2026-04-29 09:23 | 49.97262 | 8.78265 | 32199 ft | 465 kts | 189° |
| 2026-04-29 09:24 | 49.96227 | 8.78048 | 32311 ft | 464 kts | 189° |
| 2026-04-29 09:24 | 49.88192 | 8.76389 | 33147 ft | 462 kts | 189° |
| 2026-04-29 09:24 | 49.85006 | 8.75735 | 33474 ft | 461 kts | 189° |
| 2026-04-29 09:25 | 49.81832 | 8.75082 | 33798 ft | 460 kts | 190° |
| 2026-04-29 09:25 | 49.78659 | 8.74430 | 34121 ft | 460 kts | 190° |
| 2026-04-29 09:25 | 49.75488 | 8.73776 | 34417 ft | 459 kts | 190° |
| 2026-04-29 09:25 | 49.72322 | 8.73120 | 34674 ft | 458 kts | 190° |
| 2026-04-29 09:26 | 49.70231 | 8.72687 | 34844 ft | 458 kts | 190° |
| 2026-04-29 09:26 | 49.59677 | 8.70552 | 35605 ft | 458 kts | 190° |
| 2026-04-29 09:27 | 49.56510 | 8.69924 | 35826 ft | 458 kts | 189° |
| 2026-04-29 09:27 | 49.53348 | 8.69298 | 36032 ft | 458 kts | 190° |
| 2026-04-29 09:27 | 49.50190 | 8.68668 | 36245 ft | 458 kts | 190° |
| 2026-04-29 09:27 | 49.47031 | 8.68031 | 36452 ft | 458 kts | 190° |
| 2026-04-29 09:28 | 49.43868 | 8.67389 | 36656 ft | 458 kts | 190° |
| 2026-04-29 09:28 | 49.40711 | 8.66746 | 36857 ft | 457 kts | 190° |
| 2026-04-29 09:28 | 49.37556 | 8.66102 | 37051 ft | 457 kts | 190° |
| 2026-04-29 09:28 | 49.34402 | 8.65459 | 37202 ft | 457 kts | 190° |
| 2026-04-29 09:29 | 49.31254 | 8.64823 | 37246 ft | 457 kts | 190° |
| 2026-04-29 09:29 | 49.21813 | 8.62928 | 37237 ft | 456 kts | 190° |
| 2026-04-29 09:30 | 49.16177 | 8.61796 | 37231 ft | 455 kts | 190° |
| 2026-04-29 09:30 | 49.09901 | 8.60537 | 37224 ft | 455 kts | 190° |
| 2026-04-29 09:31 | 49.03621 | 8.59288 | 37218 ft | 455 kts | 190° |
| 2026-04-29 09:31 | 48.97353 | 8.57957 | 37218 ft | 454 kts | 193° |
| 2026-04-29 09:32 | 48.91183 | 8.56041 | 37215 ft | 452 kts | 196° |
| 2026-04-29 09:32 | 48.85054 | 8.53866 | 37217 ft | 452 kts | 197° |
| 2026-04-29 09:33 | 48.78916 | 8.51791 | 37211 ft | 452 kts | 195° |
| 2026-04-29 09:33 | 48.72760 | 8.49825 | 37204 ft | 452 kts | 195° |
| 2026-04-29 09:34 | 48.66600 | 8.47882 | 37201 ft | 452 kts | 195° |
| 2026-04-29 09:34 | 48.60449 | 8.45909 | 37196 ft | 452 kts | 196° |
| 2026-04-29 09:35 | 48.54300 | 8.43937 | 37188 ft | 452 kts | 196° |
| 2026-04-29 09:35 | 48.48154 | 8.41984 | 37182 ft | 452 kts | 196° |
| 2026-04-29 09:36 | 48.42005 | 8.40044 | 37174 ft | 451 kts | 196° |
| 2026-04-29 09:36 | 48.35863 | 8.38096 | 37179 ft | 451 kts | 196° |
| 2026-04-29 09:37 | 48.29729 | 8.36143 | 37175 ft | 450 kts | 196° |
| 2026-04-29 09:37 | 48.23609 | 8.34208 | 37179 ft | 449 kts | 196° |
| 2026-04-29 09:38 | 48.17575 | 8.31933 | 37164 ft | 443 kts | 206° |
| 2026-04-29 09:38 | 48.12253 | 8.27556 | 37169 ft | 435 kts | 217° |
| 2026-04-29 09:39 | 48.07183 | 8.22637 | 37163 ft | 434 kts | 217° |
| 2026-04-29 09:39 | 48.02122 | 8.17746 | 37160 ft | 433 kts | 217° |
| 2026-04-29 09:40 | 47.97056 | 8.12895 | 37155 ft | 432 kts | 216° |
| 2026-04-29 09:40 | 47.91991 | 8.08053 | 37153 ft | 432 kts | 216° |
| 2026-04-29 09:41 | 47.86932 | 8.03219 | 37142 ft | 432 kts | 216° |
| 2026-04-29 09:41 | 47.81868 | 7.98389 | 37140 ft | 432 kts | 216° |
| 2026-04-29 09:42 | 47.76805 | 7.93567 | 37145 ft | 432 kts | 216° |
| 2026-04-29 09:42 | 47.71734 | 7.88751 | 37151 ft | 432 kts | 216° |
| 2026-04-29 09:43 | 47.66666 | 7.83957 | 37155 ft | 432 kts | 216° |
| 2026-04-29 09:43 | 47.61588 | 7.79169 | 37155 ft | 432 kts | 216° |
| 2026-04-29 09:44 | 47.56515 | 7.74385 | 37152 ft | 432 kts | 216° |
| 2026-04-29 09:44 | 47.51442 | 7.69612 | 37153 ft | 433 kts | 216° |
| 2026-04-29 09:45 | 47.46678 | 7.64291 | 37154 ft | 427 kts | 225° |
| 2026-04-29 09:45 | 47.42192 | 7.58521 | 37153 ft | 428 kts | 225° |
| 2026-04-29 09:46 | 47.37701 | 7.52744 | 37149 ft | 428 kts | 225° |
| 2026-04-29 09:46 | 47.33177 | 7.46948 | 37143 ft | 428 kts | 225° |
| 2026-04-29 09:47 | 47.28715 | 7.41241 | 37146 ft | 427 kts | 225° |
| 2026-04-29 09:47 | 47.24227 | 7.35501 | 37150 ft | 427 kts | 225° |
| 2026-04-29 09:48 | 47.19740 | 7.29783 | 37150 ft | 426 kts | 224° |
| 2026-04-29 09:48 | 47.15246 | 7.24106 | 37147 ft | 425 kts | 224° |
| 2026-04-29 09:49 | 47.10747 | 7.18472 | 37145 ft | 424 kts | 224° |
| 2026-04-29 09:49 | 47.06259 | 7.12856 | 37142 ft | 424 kts | 224° |
| 2026-04-29 09:50 | 47.01748 | 7.07224 | 37140 ft | 423 kts | 224° |
| 2026-04-29 09:50 | 46.97300 | 7.01678 | 37144 ft | 423 kts | 224° |
| 2026-04-29 09:51 | 46.92821 | 6.96109 | 37144 ft | 422 kts | 224° |
| 2026-04-29 09:51 | 46.88352 | 6.90555 | 37145 ft | 422 kts | 224° |
| 2026-04-29 09:52 | 46.83887 | 6.84997 | 37147 ft | 421 kts | 224° |
| 2026-04-29 09:52 | 46.79408 | 6.79414 | 37144 ft | 421 kts | 224° |
| 2026-04-29 09:53 | 46.74983 | 6.73914 | 37141 ft | 420 kts | 224° |
| 2026-04-29 09:53 | 46.70505 | 6.68363 | 37131 ft | 420 kts | 224° |
| 2026-04-29 09:54 | 46.66047 | 6.62859 | 37125 ft | 420 kts | 224° |
| 2026-04-29 09:54 | 46.61589 | 6.57372 | 37115 ft | 420 kts | 224° |
| 2026-04-29 09:55 | 46.57126 | 6.51890 | 37109 ft | 420 kts | 223° |
| 2026-04-29 09:55 | 46.52662 | 6.46426 | 37108 ft | 420 kts | 223° |
| 2026-04-29 09:56 | 46.48949 | 6.41885 | 37113 ft | 420 kts | 223° |
| 2026-04-29 09:56 | 46.44484 | 6.36419 | 37112 ft | 420 kts | 223° |
| 2026-04-29 09:57 | 46.40018 | 6.30967 | 37110 ft | 420 kts | 223° |
| 2026-04-29 09:57 | 46.35547 | 6.25540 | 37117 ft | 419 kts | 223° |
| 2026-04-29 09:58 | 46.31077 | 6.20124 | 37109 ft | 419 kts | 223° |
| 2026-04-29 09:58 | 46.26432 | 6.15027 | 37118 ft | 422 kts | 212° |
| 2026-04-29 09:59 | 46.20865 | 6.12201 | 37109 ft | 431 kts | 193° |
| 2026-04-29 09:59 | 46.14932 | 6.10901 | 37108 ft | 431 kts | 193° |
| 2026-04-29 10:00 | 46.08997 | 6.09582 | 37104 ft | 431 kts | 193° |
| 2026-04-29 10:00 | 46.03064 | 6.08259 | 37073 ft | 431 kts | 193° |
| 2026-04-29 10:01 | 45.97129 | 6.06950 | 37080 ft | 432 kts | 192° |
| 2026-04-29 10:01 | 45.91194 | 6.05642 | 37079 ft | 431 kts | 193° |
| 2026-04-29 10:02 | 45.85258 | 6.04335 | 37074 ft | 431 kts | 192° |
| 2026-04-29 10:02 | 45.79328 | 6.03030 | 37078 ft | 431 kts | 193° |
| 2026-04-29 10:03 | 45.73403 | 6.01708 | 37072 ft | 431 kts | 193° |
| 2026-04-29 10:03 | 45.69430 | 6.00826 | 37074 ft | 431 kts | 193° |